sensor_id;sensor_type;location;lat;lon;timestamp;P1;durP1;ratioP1;P2;durP2;ratioP2
71696;SDS011;68167;59.120;37.898;2024-03-08T00:00:41;62.90;;;25.53;;
71696;SDS011;68167;59.120;37.898;2024-03-08T00:03:08;100.30;;;42.00;;
71696;SDS011;68167;59.120;37.898;2024-03-08T00:05:37;90.97;;;41.80;;
71696;SDS011;68167;59.120;37.898;2024-03-08T00:08:04;83.63;;;36.37;;
71696;SDS011;68167;59.120;37.898;2024-03-08T00:10:35;119.30;;;56.20;;
71696;SDS011;68167;59.120;37.898;2024-03-08T00:13:02;124.60;;;53.90;;
71696;SDS011;68167;59.120;37.898;2024-03-08T00:15:30;69.70;;;31.97;;
71696;SDS011;68167;59.120;37.898;2024-03-08T00:17:58;83.73;;;38.47;;
71696;SDS011;68167;59.120;37.898;2024-03-08T00:20:24;128.37;;;60.83;;
71696;SDS011;68167;59.120;37.898;2024-03-08T00:22:50;103.57;;;48.63;;
71696;SDS011;68167;59.120;37.898;2024-03-08T00:25:17;128.83;;;62.17;;
71696;SDS011;68167;59.120;37.898;2024-03-08T00:27:44;148.70;;;62.57;;
71696;SDS011;68167;59.120;37.898;2024-03-08T00:30:11;156.67;;;69.20;;
71696;SDS011;68167;59.120;37.898;2024-03-08T00:32:38;160.23;;;63.00;;
71696;SDS011;68167;59.120;37.898;2024-03-08T00:35:05;224.83;;;103.27;;
71696;SDS011;68167;59.120;37.898;2024-03-08T00:37:33;256.03;;;108.60;;
71696;SDS011;68167;59.120;37.898;2024-03-08T00:40:00;190.47;;;76.23;;
71696;SDS011;68167;59.120;37.898;2024-03-08T00:42:26;222.03;;;94.73;;
71696;SDS011;68167;59.120;37.898;2024-03-08T00:44:53;197.77;;;80.37;;
71696;SDS011;68167;59.120;37.898;2024-03-08T00:47:20;194.17;;;75.97;;
71696;SDS011;68167;59.120;37.898;2024-03-08T00:49:46;191.30;;;84.57;;
71696;SDS011;68167;59.120;37.898;2024-03-08T00:52:18;181.53;;;81.30;;
71696;SDS011;68167;59.120;37.898;2024-03-08T00:54:45;157.97;;;73.63;;
71696;SDS011;68167;59.120;37.898;2024-03-08T00:57:11;197.43;;;83.50;;
71696;SDS011;68167;59.120;37.898;2024-03-08T00:59:38;174.47;;;66.43;;
71696;SDS011;68167;59.120;37.898;2024-03-08T01:02:04;183.67;;;74.27;;
71696;SDS011;68167;59.120;37.898;2024-03-08T01:04:31;194.37;;;77.87;;
71696;SDS011;68167;59.120;37.898;2024-03-08T01:06:59;170.50;;;57.03;;
71696;SDS011;68167;59.120;37.898;2024-03-08T01:09:25;170.43;;;57.97;;
71696;SDS011;68167;59.120;37.898;2024-03-08T01:11:53;188.93;;;62.23;;
71696;SDS011;68167;59.120;37.898;2024-03-08T01:14:20;182.83;;;65.23;;
71696;SDS011;68167;59.120;37.898;2024-03-08T01:16:51;162.67;;;59.43;;
71696;SDS011;68167;59.120;37.898;2024-03-08T01:19:17;170.13;;;56.47;;
71696;SDS011;68167;59.120;37.898;2024-03-08T01:21:44;158.37;;;52.03;;
71696;SDS011;68167;59.120;37.898;2024-03-08T01:24:10;163.87;;;51.27;;
71696;SDS011;68167;59.120;37.898;2024-03-08T01:26:36;154.57;;;47.23;;
71696;SDS011;68167;59.120;37.898;2024-03-08T01:29:03;167.07;;;50.03;;
71696;SDS011;68167;59.120;37.898;2024-03-08T01:31:29;148.33;;;45.43;;
71696;SDS011;68167;59.120;37.898;2024-03-08T01:33:57;131.60;;;44.17;;
71696;SDS011;68167;59.120;37.898;2024-03-08T01:36:24;174.48;;;57.08;;
71696;SDS011;68167;59.120;37.898;2024-03-08T01:38:51;142.60;;;54.23;;
71696;SDS011;68167;59.120;37.898;2024-03-08T01:41:18;171.17;;;57.43;;
71696;SDS011;68167;59.120;37.898;2024-03-08T01:43:46;162.63;;;60.67;;
71696;SDS011;68167;59.120;37.898;2024-03-08T01:46:13;154.77;;;51.83;;
71696;SDS011;68167;59.120;37.898;2024-03-08T01:48:43;172.93;;;52.60;;
71696;SDS011;68167;59.120;37.898;2024-03-08T01:51:11;175.00;;;54.47;;
71696;SDS011;68167;59.120;37.898;2024-03-08T01:53:38;232.90;;;70.50;;
71696;SDS011;68167;59.120;37.898;2024-03-08T01:56:06;247.20;;;67.50;;
71696;SDS011;68167;59.120;37.898;2024-03-08T01:58:33;172.23;;;55.23;;
71696;SDS011;68167;59.120;37.898;2024-03-08T02:00:59;182.13;;;53.63;;
71696;SDS011;68167;59.120;37.898;2024-03-08T02:03:30;175.70;;;57.13;;
71696;SDS011;68167;59.120;37.898;2024-03-08T02:05:57;193.90;;;60.63;;
71696;SDS011;68167;59.120;37.898;2024-03-08T02:08:26;151.67;;;47.33;;
71696;SDS011;68167;59.120;37.898;2024-03-08T02:10:52;190.90;;;58.93;;
71696;SDS011;68167;59.120;37.898;2024-03-08T02:13:19;145.23;;;48.00;;
71696;SDS011;68167;59.120;37.898;2024-03-08T02:18:38;147.93;;;44.23;;
71696;SDS011;68167;59.120;37.898;2024-03-08T02:21:05;172.03;;;49.50;;
71696;SDS011;68167;59.120;37.898;2024-03-08T02:23:33;200.13;;;65.57;;
71696;SDS011;68167;59.120;37.898;2024-03-08T02:26:03;246.00;;;74.10;;
71696;SDS011;68167;59.120;37.898;2024-03-08T02:28:31;183.87;;;61.67;;
71696;SDS011;68167;59.120;37.898;2024-03-08T02:30:57;162.97;;;53.87;;
71696;SDS011;68167;59.120;37.898;2024-03-08T02:33:25;174.60;;;56.93;;
71696;SDS011;68167;59.120;37.898;2024-03-08T02:35:52;167.30;;;51.03;;
71696;SDS011;68167;59.120;37.898;2024-03-08T02:38:19;141.30;;;47.23;;
71696;SDS011;68167;59.120;37.898;2024-03-08T02:40:47;121.30;;;39.33;;
71696;SDS011;68167;59.120;37.898;2024-03-08T02:43:15;85.77;;;28.80;;
71696;SDS011;68167;59.120;37.898;2024-03-08T02:45:44;79.33;;;27.73;;
71696;SDS011;68167;59.120;37.898;2024-03-08T02:48:12;77.97;;;28.20;;
71696;SDS011;68167;59.120;37.898;2024-03-08T02:50:40;63.40;;;21.37;;
71696;SDS011;68167;59.120;37.898;2024-03-08T02:53:09;73.50;;;26.00;;
71696;SDS011;68167;59.120;37.898;2024-03-08T02:55:37;46.03;;;16.43;;
71696;SDS011;68167;59.120;37.898;2024-03-08T02:58:05;34.17;;;11.57;;
71696;SDS011;68167;59.120;37.898;2024-03-08T03:00:34;49.90;;;16.03;;
71696;SDS011;68167;59.120;37.898;2024-03-08T03:03:01;37.83;;;14.20;;
71696;SDS011;68167;59.120;37.898;2024-03-08T03:05:29;47.27;;;17.93;;
71696;SDS011;68167;59.120;37.898;2024-03-08T03:07:56;44.83;;;14.53;;
71696;SDS011;68167;59.120;37.898;2024-03-08T03:10:51;69.77;;;20.17;;
71696;SDS011;68167;59.120;37.898;2024-03-08T03:13:18;47.73;;;16.40;;
71696;SDS011;68167;59.120;37.898;2024-03-08T03:15:46;42.70;;;15.37;;
71696;SDS011;68167;59.120;37.898;2024-03-08T03:18:12;84.60;;;27.97;;
71696;SDS011;68167;59.120;37.898;2024-03-08T03:20:38;65.20;;;22.63;;
71696;SDS011;68167;59.120;37.898;2024-03-08T03:23:09;57.57;;;21.70;;
71696;SDS011;68167;59.120;37.898;2024-03-08T03:25:39;52.10;;;20.83;;
71696;SDS011;68167;59.120;37.898;2024-03-08T03:28:07;67.90;;;24.57;;
71696;SDS011;68167;59.120;37.898;2024-03-08T03:30:34;101.27;;;36.23;;
71696;SDS011;68167;59.120;37.898;2024-03-08T03:33:00;128.33;;;44.60;;
71696;SDS011;68167;59.120;37.898;2024-03-08T03:35:30;174.87;;;56.47;;
71696;SDS011;68167;59.120;37.898;2024-03-08T03:37:56;160.30;;;48.70;;
71696;SDS011;68167;59.120;37.898;2024-03-08T03:40:37;168.03;;;55.50;;
71696;SDS011;68167;59.120;37.898;2024-03-08T03:43:04;131.10;;;46.07;;
71696;SDS011;68167;59.120;37.898;2024-03-08T03:45:30;146.43;;;49.63;;
71696;SDS011;68167;59.120;37.898;2024-03-08T03:48:02;141.33;;;48.20;;
71696;SDS011;68167;59.120;37.898;2024-03-08T03:50:29;122.17;;;42.87;;
71696;SDS011;68167;59.120;37.898;2024-03-08T03:52:55;128.73;;;44.03;;
71696;SDS011;68167;59.120;37.898;2024-03-08T03:55:22;150.73;;;46.13;;
71696;SDS011;68167;59.120;37.898;2024-03-08T03:57:48;140.60;;;44.90;;
71696;SDS011;68167;59.120;37.898;2024-03-08T04:00:15;131.87;;;42.37;;
71696;SDS011;68167;59.120;37.898;2024-03-08T04:02:42;123.23;;;41.23;;
71696;SDS011;68167;59.120;37.898;2024-03-08T04:05:09;125.27;;;39.83;;
71696;SDS011;68167;59.120;37.898;2024-03-08T04:07:37;100.50;;;32.70;;
71696;SDS011;68167;59.120;37.898;2024-03-08T04:10:06;105.97;;;34.23;;
71696;SDS011;68167;59.120;37.898;2024-03-08T04:12:33;117.70;;;35.73;;
71696;SDS011;68167;59.120;37.898;2024-03-08T04:15:00;96.70;;;34.17;;
71696;SDS011;68167;59.120;37.898;2024-03-08T04:17:30;104.63;;;35.53;;
71696;SDS011;68167;59.120;37.898;2024-03-08T04:19:57;102.53;;;35.30;;
71696;SDS011;68167;59.120;37.898;2024-03-08T04:22:23;126.40;;;41.73;;
71696;SDS011;68167;59.120;37.898;2024-03-08T04:24:50;115.10;;;40.60;;
71696;SDS011;68167;59.120;37.898;2024-03-08T04:27:16;105.57;;;39.47;;
71696;SDS011;68167;59.120;37.898;2024-03-08T04:29:43;96.13;;;32.80;;
71696;SDS011;68167;59.120;37.898;2024-03-08T04:32:09;132.13;;;42.73;;
71696;SDS011;68167;59.120;37.898;2024-03-08T04:34:36;113.17;;;38.37;;
71696;SDS011;68167;59.120;37.898;2024-03-08T04:37:02;121.97;;;37.67;;
71696;SDS011;68167;59.120;37.898;2024-03-08T04:39:31;97.70;;;33.17;;
71696;SDS011;68167;59.120;37.898;2024-03-08T04:41:58;84.97;;;28.37;;
71696;SDS011;68167;59.120;37.898;2024-03-08T04:44:26;110.27;;;34.67;;
71696;SDS011;68167;59.120;37.898;2024-03-08T04:46:52;98.07;;;33.90;;
71696;SDS011;68167;59.120;37.898;2024-03-08T04:49:19;98.27;;;34.67;;
71696;SDS011;68167;59.120;37.898;2024-03-08T04:51:47;62.00;;;22.13;;
71696;SDS011;68167;59.120;37.898;2024-03-08T04:54:13;93.40;;;31.80;;
71696;SDS011;68167;59.120;37.898;2024-03-08T04:56:40;93.67;;;30.90;;
71696;SDS011;68167;59.120;37.898;2024-03-08T04:59:07;88.80;;;28.13;;
71696;SDS011;68167;59.120;37.898;2024-03-08T05:01:34;91.60;;;31.90;;
71696;SDS011;68167;59.120;37.898;2024-03-08T05:04:04;134.03;;;41.63;;
71696;SDS011;68167;59.120;37.898;2024-03-08T05:06:31;127.53;;;38.37;;
71696;SDS011;68167;59.120;37.898;2024-03-08T05:08:59;96.63;;;32.33;;
71696;SDS011;68167;59.120;37.898;2024-03-08T05:11:25;123.20;;;39.23;;
71696;SDS011;68167;59.120;37.898;2024-03-08T05:13:51;144.47;;;45.63;;
71696;SDS011;68167;59.120;37.898;2024-03-08T05:16:18;95.97;;;30.40;;
71696;SDS011;68167;59.120;37.898;2024-03-08T05:18:44;124.70;;;34.33;;
71696;SDS011;68167;59.120;37.898;2024-03-08T05:21:12;63.17;;;20.87;;
71696;SDS011;68167;59.120;37.898;2024-03-08T05:23:39;76.83;;;24.97;;
71696;SDS011;68167;59.120;37.898;2024-03-08T05:26:05;75.87;;;27.17;;
71696;SDS011;68167;59.120;37.898;2024-03-08T05:28:31;149.83;;;45.50;;
71696;SDS011;68167;59.120;37.898;2024-03-08T05:30:58;106.30;;;33.93;;
71696;SDS011;68167;59.120;37.898;2024-03-08T05:33:24;120.77;;;36.60;;
71696;SDS011;68167;59.120;37.898;2024-03-08T05:35:50;98.83;;;30.57;;
71696;SDS011;68167;59.120;37.898;2024-03-08T05:38:17;97.27;;;32.23;;
71696;SDS011;68167;59.120;37.898;2024-03-08T05:40:46;86.83;;;27.53;;
71696;SDS011;68167;59.120;37.898;2024-03-08T05:43:12;70.68;;;24.73;;
71696;SDS011;68167;59.120;37.898;2024-03-08T05:45:38;53.17;;;18.30;;
71696;SDS011;68167;59.120;37.898;2024-03-08T05:48:05;58.17;;;17.77;;
71696;SDS011;68167;59.120;37.898;2024-03-08T05:50:32;65.67;;;21.17;;
71696;SDS011;68167;59.120;37.898;2024-03-08T05:52:58;59.93;;;19.97;;
71696;SDS011;68167;59.120;37.898;2024-03-08T05:55:24;65.67;;;21.57;;
71696;SDS011;68167;59.120;37.898;2024-03-08T05:57:50;76.37;;;28.17;;
71696;SDS011;68167;59.120;37.898;2024-03-08T06:00:19;72.93;;;27.17;;
71696;SDS011;68167;59.120;37.898;2024-03-08T06:02:45;83.80;;;26.77;;
71696;SDS011;68167;59.120;37.898;2024-03-08T06:05:12;86.33;;;29.37;;
71696;SDS011;68167;59.120;37.898;2024-03-08T06:07:38;93.90;;;27.77;;
71696;SDS011;68167;59.120;37.898;2024-03-08T06:10:11;64.83;;;22.70;;
71696;SDS011;68167;59.120;37.898;2024-03-08T06:12:43;85.93;;;27.20;;
71696;SDS011;68167;59.120;37.898;2024-03-08T06:15:11;87.10;;;27.80;;
71696;SDS011;68167;59.120;37.898;2024-03-08T06:17:40;99.47;;;31.27;;
71696;SDS011;68167;59.120;37.898;2024-03-08T06:20:07;88.93;;;31.73;;
71696;SDS011;68167;59.120;37.898;2024-03-08T06:22:39;97.13;;;30.03;;
71696;SDS011;68167;59.120;37.898;2024-03-08T06:25:07;94.00;;;33.07;;
71696;SDS011;68167;59.120;37.898;2024-03-08T06:27:35;110.00;;;36.53;;
71696;SDS011;68167;59.120;37.898;2024-03-08T06:30:02;125.57;;;40.67;;
71696;SDS011;68167;59.120;37.898;2024-03-08T06:32:30;98.67;;;32.17;;
71696;SDS011;68167;59.120;37.898;2024-03-08T06:35:01;116.77;;;37.17;;
71696;SDS011;68167;59.120;37.898;2024-03-08T06:37:32;86.70;;;31.20;;
71696;SDS011;68167;59.120;37.898;2024-03-08T06:40:00;89.97;;;34.00;;
71696;SDS011;68167;59.120;37.898;2024-03-08T06:42:28;125.93;;;38.13;;
71696;SDS011;68167;59.120;37.898;2024-03-08T06:44:54;111.40;;;37.53;;
71696;SDS011;68167;59.120;37.898;2024-03-08T06:47:25;102.03;;;32.13;;
71696;SDS011;68167;59.120;37.898;2024-03-08T06:49:52;69.13;;;23.77;;
71696;SDS011;68167;59.120;37.898;2024-03-08T06:52:18;70.73;;;24.10;;
71696;SDS011;68167;59.120;37.898;2024-03-08T06:54:44;83.60;;;30.03;;
71696;SDS011;68167;59.120;37.898;2024-03-08T06:57:11;61.40;;;22.80;;
71696;SDS011;68167;59.120;37.898;2024-03-08T06:59:37;54.07;;;19.30;;
71696;SDS011;68167;59.120;37.898;2024-03-08T07:02:03;63.20;;;22.10;;
71696;SDS011;68167;59.120;37.898;2024-03-08T07:04:30;38.80;;;12.90;;
71696;SDS011;68167;59.120;37.898;2024-03-08T07:06:57;53.80;;;17.67;;
71696;SDS011;68167;59.120;37.898;2024-03-08T07:09:24;46.27;;;17.10;;
71696;SDS011;68167;59.120;37.898;2024-03-08T07:11:51;43.17;;;14.73;;
71696;SDS011;68167;59.120;37.898;2024-03-08T07:14:21;33.33;;;12.13;;
71696;SDS011;68167;59.120;37.898;2024-03-08T07:16:48;47.40;;;16.50;;
71696;SDS011;68167;59.120;37.898;2024-03-08T07:19:15;27.67;;;10.23;;
71696;SDS011;68167;59.120;37.898;2024-03-08T07:21:43;46.63;;;18.97;;
71696;SDS011;68167;59.120;37.898;2024-03-08T07:24:10;40.47;;;17.53;;
71696;SDS011;68167;59.120;37.898;2024-03-08T07:26:40;82.47;;;30.27;;
71696;SDS011;68167;59.120;37.898;2024-03-08T07:29:06;71.87;;;29.47;;
71696;SDS011;68167;59.120;37.898;2024-03-08T07:31:33;77.83;;;33.10;;
71696;SDS011;68167;59.120;37.898;2024-03-08T07:34:18;95.93;;;38.07;;
71696;SDS011;68167;59.120;37.898;2024-03-08T07:36:44;78.93;;;31.37;;
71696;SDS011;68167;59.120;37.898;2024-03-08T07:39:11;47.77;;;20.77;;
71696;SDS011;68167;59.120;37.898;2024-03-08T07:41:38;49.80;;;18.90;;
71696;SDS011;68167;59.120;37.898;2024-03-08T07:44:09;55.83;;;19.40;;
71696;SDS011;68167;59.120;37.898;2024-03-08T07:46:36;40.03;;;14.97;;
71696;SDS011;68167;59.120;37.898;2024-03-08T07:49:03;35.97;;;13.87;;
71696;SDS011;68167;59.120;37.898;2024-03-08T07:51:29;30.03;;;11.23;;
71696;SDS011;68167;59.120;37.898;2024-03-08T07:53:56;30.33;;;11.63;;
71696;SDS011;68167;59.120;37.898;2024-03-08T07:56:23;16.40;;;7.73;;
71696;SDS011;68167;59.120;37.898;2024-03-08T07:58:51;13.17;;;5.27;;
71696;SDS011;68167;59.120;37.898;2024-03-08T08:01:19;11.33;;;5.17;;
71696;SDS011;68167;59.120;37.898;2024-03-08T08:03:46;16.27;;;6.40;;
71696;SDS011;68167;59.120;37.898;2024-03-08T08:06:15;19.00;;;6.73;;
71696;SDS011;68167;59.120;37.898;2024-03-08T08:08:43;28.83;;;9.80;;
71696;SDS011;68167;59.120;37.898;2024-03-08T08:11:09;43.33;;;17.03;;
71696;SDS011;68167;59.120;37.898;2024-03-08T08:13:37;50.60;;;17.83;;
71696;SDS011;68167;59.120;37.898;2024-03-08T08:16:03;31.97;;;11.40;;
71696;SDS011;68167;59.120;37.898;2024-03-08T08:18:31;35.33;;;12.30;;
71696;SDS011;68167;59.120;37.898;2024-03-08T08:20:59;24.20;;;7.73;;
71696;SDS011;68167;59.120;37.898;2024-03-08T08:23:28;18.73;;;5.50;;
71696;SDS011;68167;59.120;37.898;2024-03-08T08:25:55;12.43;;;4.53;;
71696;SDS011;68167;59.120;37.898;2024-03-08T08:28:22;17.47;;;7.23;;
71696;SDS011;68167;59.120;37.898;2024-03-08T08:30:48;13.20;;;5.47;;
71696;SDS011;68167;59.120;37.898;2024-03-08T08:33:15;6.97;;;2.37;;
71696;SDS011;68167;59.120;37.898;2024-03-08T08:35:41;2.53;;;1.33;;
71696;SDS011;68167;59.120;37.898;2024-03-08T08:38:08;3.80;;;1.10;;
71696;SDS011;68167;59.120;37.898;2024-03-08T08:40:37;3.90;;;1.63;;
71696;SDS011;68167;59.120;37.898;2024-03-08T08:43:04;3.03;;;1.30;;
71696;SDS011;68167;59.120;37.898;2024-03-08T08:45:30;3.33;;;1.03;;
71696;SDS011;68167;59.120;37.898;2024-03-08T08:47:57;2.67;;;0.93;;
71696;SDS011;68167;59.120;37.898;2024-03-08T08:50:28;3.00;;;1.20;;
71696;SDS011;68167;59.120;37.898;2024-03-08T08:52:57;7.17;;;1.70;;
71696;SDS011;68167;59.120;37.898;2024-03-08T08:55:24;1.20;;;0.67;;
71696;SDS011;68167;59.120;37.898;2024-03-08T08:57:52;3.27;;;1.13;;
71696;SDS011;68167;59.120;37.898;2024-03-08T09:00:19;3.20;;;1.30;;
71696;SDS011;68167;59.120;37.898;2024-03-08T09:02:46;2.47;;;0.80;;
71696;SDS011;68167;59.120;37.898;2024-03-08T09:05:15;2.33;;;0.80;;
71696;SDS011;68167;59.120;37.898;2024-03-08T09:07:43;1.33;;;0.80;;
71696;SDS011;68167;59.120;37.898;2024-03-08T09:10:10;2.63;;;0.93;;
71696;SDS011;68167;59.120;37.898;2024-03-08T09:12:38;1.00;;;0.60;;
71696;SDS011;68167;59.120;37.898;2024-03-08T09:15:05;1.90;;;0.63;;
71696;SDS011;68167;59.120;37.898;2024-03-08T09:17:34;1.20;;;0.67;;
71696;SDS011;68167;59.120;37.898;2024-03-08T09:20:00;1.57;;;0.60;;
71696;SDS011;68167;59.120;37.898;2024-03-08T09:22:33;2.67;;;0.60;;
71696;SDS011;68167;59.120;37.898;2024-03-08T09:25:00;4.33;;;1.80;;
71696;SDS011;68167;59.120;37.898;2024-03-08T09:27:27;1.83;;;0.80;;
71696;SDS011;68167;59.120;37.898;2024-03-08T09:29:54;2.93;;;0.80;;
71696;SDS011;68167;59.120;37.898;2024-03-08T09:32:20;1.90;;;0.63;;
71696;SDS011;68167;59.120;37.898;2024-03-08T09:34:48;3.53;;;1.20;;
71696;SDS011;68167;59.120;37.898;2024-03-08T09:37:16;5.57;;;1.40;;
71696;SDS011;68167;59.120;37.898;2024-03-08T09:39:43;1.10;;;0.50;;
71696;SDS011;68167;59.120;37.898;2024-03-08T09:42:13;2.27;;;0.80;;
71696;SDS011;68167;59.120;37.898;2024-03-08T09:44:46;3.77;;;1.20;;
71696;SDS011;68167;59.120;37.898;2024-03-08T09:47:14;2.73;;;1.07;;
71696;SDS011;68167;59.120;37.898;2024-03-08T09:49:41;2.47;;;0.90;;
71696;SDS011;68167;59.120;37.898;2024-03-08T09:52:07;4.70;;;1.50;;
71696;SDS011;68167;59.120;37.898;2024-03-08T09:54:37;3.13;;;1.47;;
71696;SDS011;68167;59.120;37.898;2024-03-08T09:57:03;4.03;;;1.00;;
71696;SDS011;68167;59.120;37.898;2024-03-08T09:59:30;4.13;;;1.20;;
71696;SDS011;68167;59.120;37.898;2024-03-08T10:02:02;1.63;;;0.80;;
71696;SDS011;68167;59.120;37.898;2024-03-08T10:04:30;3.57;;;0.90;;
71696;SDS011;68167;59.120;37.898;2024-03-08T10:07:01;2.53;;;1.07;;
71696;SDS011;68167;59.120;37.898;2024-03-08T10:09:28;0.70;;;0.37;;
71696;SDS011;68167;59.120;37.898;2024-03-08T10:11:57;1.00;;;0.50;;
71696;SDS011;68167;59.120;37.898;2024-03-08T10:14:27;1.63;;;0.60;;
71696;SDS011;68167;59.120;37.898;2024-03-08T10:16:54;1.20;;;0.40;;
71696;SDS011;68167;59.120;37.898;2024-03-08T10:19:25;2.60;;;0.60;;
71696;SDS011;68167;59.120;37.898;2024-03-08T10:21:56;1.50;;;0.70;;
71696;SDS011;68167;59.120;37.898;2024-03-08T10:24:24;1.33;;;0.60;;
71696;SDS011;68167;59.120;37.898;2024-03-08T10:27:08;1.37;;;0.70;;
71696;SDS011;68167;59.120;37.898;2024-03-08T10:29:35;2.37;;;0.93;;
71696;SDS011;68167;59.120;37.898;2024-03-08T10:32:03;10.17;;;0.70;;
71696;SDS011;68167;59.120;37.898;2024-03-08T10:34:31;2.73;;;0.50;;
71696;SDS011;68167;59.120;37.898;2024-03-08T10:36:59;1.17;;;0.50;;
71696;SDS011;68167;59.120;37.898;2024-03-08T10:39:33;2.27;;;0.67;;
71696;SDS011;68167;59.120;37.898;2024-03-08T10:42:02;6.13;;;1.10;;
71696;SDS011;68167;59.120;37.898;2024-03-08T10:47:14;4.67;;;1.83;;
71696;SDS011;68167;59.120;37.898;2024-03-08T10:49:55;3.93;;;0.90;;
71696;SDS011;68167;59.120;37.898;2024-03-08T10:52:30;5.83;;;1.17;;
71696;SDS011;68167;59.120;37.898;2024-03-08T10:54:57;3.47;;;1.43;;
71696;SDS011;68167;59.120;37.898;2024-03-08T10:57:25;2.37;;;1.00;;
71696;SDS011;68167;59.120;37.898;2024-03-08T10:59:53;2.57;;;0.83;;
71696;SDS011;68167;59.120;37.898;2024-03-08T11:02:21;2.80;;;1.00;;
71696;SDS011;68167;59.120;37.898;2024-03-08T11:04:47;2.63;;;1.10;;
71696;SDS011;68167;59.120;37.898;2024-03-08T11:07:15;5.00;;;1.33;;
71696;SDS011;68167;59.120;37.898;2024-03-08T11:09:49;3.70;;;1.30;;
71696;SDS011;68167;59.120;37.898;2024-03-08T11:12:19;3.93;;;1.17;;
71696;SDS011;68167;59.120;37.898;2024-03-08T11:14:47;4.20;;;1.40;;
71696;SDS011;68167;59.120;37.898;2024-03-08T11:17:15;2.27;;;1.03;;
71696;SDS011;68167;59.120;37.898;2024-03-08T11:19:46;2.73;;;0.83;;
71696;SDS011;68167;59.120;37.898;2024-03-08T11:22:21;1.37;;;0.70;;
71696;SDS011;68167;59.120;37.898;2024-03-08T11:24:58;4.43;;;1.60;;
71696;SDS011;68167;59.120;37.898;2024-03-08T11:27:30;3.63;;;0.97;;
71696;SDS011;68167;59.120;37.898;2024-03-08T11:30:01;3.37;;;0.73;;
71696;SDS011;68167;59.120;37.898;2024-03-08T11:32:38;1.00;;;0.30;;
71696;SDS011;68167;59.120;37.898;2024-03-08T11:35:08;1.23;;;0.47;;
71696;SDS011;68167;59.120;37.898;2024-03-08T11:37:45;1.57;;;0.20;;
71696;SDS011;68167;59.120;37.898;2024-03-08T11:40:12;0.60;;;0.20;;
71696;SDS011;68167;59.120;37.898;2024-03-08T11:42:45;4.00;;;0.63;;
71696;SDS011;68167;59.120;37.898;2024-03-08T11:45:17;1.93;;;0.57;;
71696;SDS011;68167;59.120;37.898;2024-03-08T11:47:47;1.40;;;0.70;;
71696;SDS011;68167;59.120;37.898;2024-03-08T11:50:14;3.80;;;0.90;;
71696;SDS011;68167;59.120;37.898;2024-03-08T11:52:44;4.57;;;1.00;;
71696;SDS011;68167;59.120;37.898;2024-03-08T11:55:11;2.83;;;0.80;;
71696;SDS011;68167;59.120;37.898;2024-03-08T11:57:38;2.13;;;0.50;;
71696;SDS011;68167;59.120;37.898;2024-03-08T12:00:05;2.43;;;1.20;;
71696;SDS011;68167;59.120;37.898;2024-03-08T12:02:34;12.40;;;3.90;;
71696;SDS011;68167;59.120;37.898;2024-03-08T12:05:06;12.60;;;6.33;;
71696;SDS011;68167;59.120;37.898;2024-03-08T12:07:35;32.17;;;10.70;;
71696;SDS011;68167;59.120;37.898;2024-03-08T12:10:21;39.07;;;14.67;;
71696;SDS011;68167;59.120;37.898;2024-03-08T12:12:54;42.43;;;13.80;;
71696;SDS011;68167;59.120;37.898;2024-03-08T12:15:22;36.30;;;15.60;;
71696;SDS011;68167;59.120;37.898;2024-03-08T12:17:50;23.60;;;8.03;;
71696;SDS011;68167;59.120;37.898;2024-03-08T12:22:57;18.10;;;6.83;;
71696;SDS011;68167;59.120;37.898;2024-03-08T12:25:32;8.67;;;4.07;;
71696;SDS011;68167;59.120;37.898;2024-03-08T12:28:11;11.83;;;3.90;;
71696;SDS011;68167;59.120;37.898;2024-03-08T12:30:49;6.87;;;1.70;;
71696;SDS011;68167;59.120;37.898;2024-03-08T12:33:28;3.23;;;1.40;;
71696;SDS011;68167;59.120;37.898;2024-03-08T12:35:55;7.27;;;2.20;;
71696;SDS011;68167;59.120;37.898;2024-03-08T12:38:24;3.53;;;1.50;;
71696;SDS011;68167;59.120;37.898;2024-03-08T12:41:00;6.37;;;2.23;;
71696;SDS011;68167;59.120;37.898;2024-03-08T12:43:27;3.80;;;1.60;;
71696;SDS011;68167;59.120;37.898;2024-03-08T12:45:57;3.67;;;1.10;;
71696;SDS011;68167;59.120;37.898;2024-03-08T12:48:23;3.33;;;0.70;;
71696;SDS011;68167;59.120;37.898;2024-03-08T12:50:54;3.27;;;1.00;;
71696;SDS011;68167;59.120;37.898;2024-03-08T12:53:20;2.70;;;0.93;;
71696;SDS011;68167;59.120;37.898;2024-03-08T12:55:49;2.07;;;0.90;;
71696;SDS011;68167;59.120;37.898;2024-03-08T12:58:15;3.40;;;1.33;;
71696;SDS011;68167;59.120;37.898;2024-03-08T13:00:42;3.73;;;1.20;;
71696;SDS011;68167;59.120;37.898;2024-03-08T13:03:09;5.37;;;1.57;;
71696;SDS011;68167;59.120;37.898;2024-03-08T13:05:37;2.93;;;1.40;;
71696;SDS011;68167;59.120;37.898;2024-03-08T13:08:06;1.70;;;0.60;;
71696;SDS011;68167;59.120;37.898;2024-03-08T13:10:39;2.20;;;0.80;;
71696;SDS011;68167;59.120;37.898;2024-03-08T13:13:05;1.83;;;0.90;;
71696;SDS011;68167;59.120;37.898;2024-03-08T13:15:32;4.37;;;1.70;;
71696;SDS011;68167;59.120;37.898;2024-03-08T13:17:59;4.70;;;1.77;;
71696;SDS011;68167;59.120;37.898;2024-03-08T13:20:26;3.40;;;1.37;;
71696;SDS011;68167;59.120;37.898;2024-03-08T13:22:54;3.20;;;1.13;;
71696;SDS011;68167;59.120;37.898;2024-03-08T13:25:21;2.73;;;0.60;;
71696;SDS011;68167;59.120;37.898;2024-03-08T13:27:49;2.70;;;0.63;;
71696;SDS011;68167;59.120;37.898;2024-03-08T13:30:21;1.10;;;0.70;;
71696;SDS011;68167;59.120;37.898;2024-03-08T13:32:51;2.63;;;0.53;;
71696;SDS011;68167;59.120;37.898;2024-03-08T13:35:45;0.73;;;0.47;;
71696;SDS011;68167;59.120;37.898;2024-03-08T13:38:12;2.00;;;0.50;;
71696;SDS011;68167;59.120;37.898;2024-03-08T13:40:39;1.37;;;0.57;;
71696;SDS011;68167;59.120;37.898;2024-03-08T13:43:08;2.50;;;1.20;;
71696;SDS011;68167;59.120;37.898;2024-03-08T13:45:35;3.20;;;1.30;;
71696;SDS011;68167;59.120;37.898;2024-03-08T13:48:08;2.87;;;1.17;;
71696;SDS011;68167;59.120;37.898;2024-03-08T13:50:38;3.70;;;1.30;;
71696;SDS011;68167;59.120;37.898;2024-03-08T13:53:05;2.70;;;1.37;;
71696;SDS011;68167;59.120;37.898;2024-03-08T13:55:35;2.43;;;1.20;;
71696;SDS011;68167;59.120;37.898;2024-03-08T13:58:02;4.20;;;1.07;;
71696;SDS011;68167;59.120;37.898;2024-03-08T14:00:28;2.93;;;1.20;;
71696;SDS011;68167;59.120;37.898;2024-03-08T14:02:59;4.07;;;1.43;;
71696;SDS011;68167;59.120;37.898;2024-03-08T14:05:26;2.73;;;0.93;;
71696;SDS011;68167;59.120;37.898;2024-03-08T14:07:52;2.73;;;0.73;;
71696;SDS011;68167;59.120;37.898;2024-03-08T14:10:20;2.77;;;0.90;;
71696;SDS011;68167;59.120;37.898;2024-03-08T14:12:48;4.03;;;1.20;;
71696;SDS011;68167;59.120;37.898;2024-03-08T14:15:16;3.50;;;1.20;;
71696;SDS011;68167;59.120;37.898;2024-03-08T14:17:43;2.07;;;0.80;;
71696;SDS011;68167;59.120;37.898;2024-03-08T14:20:12;2.73;;;1.00;;
71696;SDS011;68167;59.120;37.898;2024-03-08T14:22:39;2.20;;;0.90;;
71696;SDS011;68167;59.120;37.898;2024-03-08T14:25:06;2.37;;;0.60;;
71696;SDS011;68167;59.120;37.898;2024-03-08T14:27:48;1.70;;;1.00;;
71696;SDS011;68167;59.120;37.898;2024-03-08T14:30:15;2.03;;;0.70;;